sensor_id;sensor_type;location;lat;lon;timestamp;P1;durP1;ratioP1;P2;durP2;ratioP2
75993;SDS011;64680;53.800;9.988;2023-03-01T00:01:02;17.40;;;8.45;;
75993;SDS011;64680;53.800;9.988;2023-03-01T00:03:35;13.80;;;9.05;;
75993;SDS011;64680;53.800;9.988;2023-03-01T00:06:01;13.88;;;8.65;;
75993;SDS011;64680;53.800;9.988;2023-03-01T00:08:28;18.42;;;10.43;;
75993;SDS011;64680;53.800;9.988;2023-03-01T00:11:00;19.15;;;10.32;;
75993;SDS011;64680;53.800;9.988;2023-03-01T00:13:31;16.65;;;9.57;;
75993;SDS011;64680;53.800;9.988;2023-03-01T00:15:57;15.43;;;9.13;;
75993;SDS011;64680;53.800;9.988;2023-03-01T00:18:22;17.30;;;10.18;;
75993;SDS011;64680;53.800;9.988;2023-03-01T00:20:51;15.15;;;8.15;;
75993;SDS011;64680;53.800;9.988;2023-03-01T00:23:18;16.15;;;9.25;;
75993;SDS011;64680;53.800;9.988;2023-03-01T00:25:44;13.85;;;8.60;;
75993;SDS011;64680;53.800;9.988;2023-03-01T00:28:10;15.65;;;8.98;;
75993;SDS011;64680;53.800;9.988;2023-03-01T00:30:35;17.60;;;9.35;;
75993;SDS011;64680;53.800;9.988;2023-03-01T00:33:01;17.05;;;8.70;;
75993;SDS011;64680;53.800;9.988;2023-03-01T00:35:27;15.15;;;9.15;;
75993;SDS011;64680;53.800;9.988;2023-03-01T00:37:52;13.70;;;8.18;;
75993;SDS011;64680;53.800;9.988;2023-03-01T00:40:26;13.23;;;6.72;;
75993;SDS011;64680;53.800;9.988;2023-03-01T00:42:53;16.52;;;8.45;;
75993;SDS011;64680;53.800;9.988;2023-03-01T00:45:19;16.13;;;8.23;;
75993;SDS011;64680;53.800;9.988;2023-03-01T00:47:44;12.95;;;8.63;;
75993;SDS011;64680;53.800;9.988;2023-03-01T00:50:10;15.27;;;8.38;;
75993;SDS011;64680;53.800;9.988;2023-03-01T00:52:36;14.27;;;9.27;;
75993;SDS011;64680;53.800;9.988;2023-03-01T00:55:02;14.38;;;8.63;;
75993;SDS011;64680;53.800;9.988;2023-03-01T00:57:29;14.48;;;8.18;;
75993;SDS011;64680;53.800;9.988;2023-03-01T00:59:55;13.18;;;6.90;;
75993;SDS011;64680;53.800;9.988;2023-03-01T01:02:21;15.73;;;8.50;;
75993;SDS011;64680;53.800;9.988;2023-03-01T01:04:47;16.40;;;8.15;;
75993;SDS011;64680;53.800;9.988;2023-03-01T01:07:13;17.13;;;8.57;;
75993;SDS011;64680;53.800;9.988;2023-03-01T01:09:39;14.18;;;8.30;;
75993;SDS011;64680;53.800;9.988;2023-03-01T01:12:05;15.32;;;8.98;;
75993;SDS011;64680;53.800;9.988;2023-03-01T01:14:31;15.68;;;8.27;;
75993;SDS011;64680;53.800;9.988;2023-03-01T01:16:57;11.13;;;7.13;;
75993;SDS011;64680;53.800;9.988;2023-03-01T01:19:23;14.98;;;8.07;;
75993;SDS011;64680;53.800;9.988;2023-03-01T01:21:49;15.15;;;8.15;;
75993;SDS011;64680;53.800;9.988;2023-03-01T01:24:15;14.75;;;9.38;;
75993;SDS011;64680;53.800;9.988;2023-03-01T01:26:42;15.90;;;8.10;;
75993;SDS011;64680;53.800;9.988;2023-03-01T01:29:08;14.30;;;8.82;;
75993;SDS011;64680;53.800;9.988;2023-03-01T01:31:34;13.32;;;8.13;;
75993;SDS011;64680;53.800;9.988;2023-03-01T01:34:02;16.27;;;9.07;;
75993;SDS011;64680;53.800;9.988;2023-03-01T01:36:31;15.85;;;9.02;;
75993;SDS011;64680;53.800;9.988;2023-03-01T01:38:57;16.42;;;9.40;;
75993;SDS011;64680;53.800;9.988;2023-03-01T01:41:23;20.27;;;10.02;;
75993;SDS011;64680;53.800;9.988;2023-03-01T01:46:36;15.02;;;8.93;;
75993;SDS011;64680;53.800;9.988;2023-03-01T01:49:10;16.65;;;8.95;;
75993;SDS011;64680;53.800;9.988;2023-03-01T01:51:47;16.17;;;8.63;;
75993;SDS011;64680;53.800;9.988;2023-03-01T01:54:22;16.60;;;9.85;;
75993;SDS011;64680;53.800;9.988;2023-03-01T01:59:23;17.83;;;10.20;;
75993;SDS011;64680;53.800;9.988;2023-03-01T02:01:53;19.52;;;10.82;;
75993;SDS011;64680;53.800;9.988;2023-03-01T02:04:20;21.55;;;10.88;;
75993;SDS011;64680;53.800;9.988;2023-03-01T02:06:48;17.88;;;10.60;;
75993;SDS011;64680;53.800;9.988;2023-03-01T02:09:19;19.65;;;10.77;;
75993;SDS011;64680;53.800;9.988;2023-03-01T02:11:47;17.90;;;10.63;;
75993;SDS011;64680;53.800;9.988;2023-03-01T02:14:14;19.83;;;9.77;;
75993;SDS011;64680;53.800;9.988;2023-03-01T02:16:40;17.00;;;9.82;;
75993;SDS011;64680;53.800;9.988;2023-03-01T02:19:07;20.42;;;10.88;;
75993;SDS011;64680;53.800;9.988;2023-03-01T02:21:42;20.02;;;10.23;;
75993;SDS011;64680;53.800;9.988;2023-03-01T02:24:41;17.45;;;10.13;;
75993;SDS011;64680;53.800;9.988;2023-03-01T02:27:15;14.98;;;8.75;;
75993;SDS011;64680;53.800;9.988;2023-03-01T02:29:41;20.08;;;10.65;;
75993;SDS011;64680;53.800;9.988;2023-03-01T02:32:09;17.63;;;10.55;;
75993;SDS011;64680;53.800;9.988;2023-03-01T02:34:37;17.58;;;9.48;;
75993;SDS011;64680;53.800;9.988;2023-03-01T02:37:06;17.17;;;9.85;;
75993;SDS011;64680;53.800;9.988;2023-03-01T02:39:40;16.05;;;9.80;;
75993;SDS011;64680;53.800;9.988;2023-03-01T02:42:11;14.40;;;8.35;;
75993;SDS011;64680;53.800;9.988;2023-03-01T02:44:40;16.50;;;9.50;;
75993;SDS011;64680;53.800;9.988;2023-03-01T02:47:06;19.33;;;11.60;;
75993;SDS011;64680;53.800;9.988;2023-03-01T02:49:32;20.67;;;10.65;;
75993;SDS011;64680;53.800;9.988;2023-03-01T02:55:04;18.33;;;10.05;;
75993;SDS011;64680;53.800;9.988;2023-03-01T02:57:34;17.85;;;10.80;;
75993;SDS011;64680;53.800;9.988;2023-03-01T03:00:07;21.63;;;10.45;;
75993;SDS011;64680;53.800;9.988;2023-03-01T03:02:43;22.63;;;9.82;;
75993;SDS011;64680;53.800;9.988;2023-03-01T03:05:16;21.13;;;10.82;;
75993;SDS011;64680;53.800;9.988;2023-03-01T03:07:44;21.67;;;10.88;;
75993;SDS011;64680;53.800;9.988;2023-03-01T03:10:15;21.38;;;9.52;;
75993;SDS011;64680;53.800;9.988;2023-03-01T03:12:44;23.15;;;10.43;;
75993;SDS011;64680;53.800;9.988;2023-03-01T03:15:13;19.80;;;10.88;;
75993;SDS011;64680;53.800;9.988;2023-03-01T03:17:39;24.67;;;12.55;;
75993;SDS011;64680;53.800;9.988;2023-03-01T03:20:07;23.48;;;11.77;;
75993;SDS011;64680;53.800;9.988;2023-03-01T03:22:36;23.70;;;12.32;;
75993;SDS011;64680;53.800;9.988;2023-03-01T03:25:05;20.70;;;10.98;;
75993;SDS011;64680;53.800;9.988;2023-03-01T03:27:35;22.20;;;12.15;;
75993;SDS011;64680;53.800;9.988;2023-03-01T03:30:02;20.33;;;10.40;;
75993;SDS011;64680;53.800;9.988;2023-03-01T03:32:34;18.25;;;10.32;;
75993;SDS011;64680;53.800;9.988;2023-03-01T03:35:03;20.77;;;10.90;;
75993;SDS011;64680;53.800;9.988;2023-03-01T03:37:35;17.60;;;9.85;;
75993;SDS011;64680;53.800;9.988;2023-03-01T03:40:23;21.02;;;10.40;;
75993;SDS011;64680;53.800;9.988;2023-03-01T03:42:48;19.52;;;10.30;;
75993;SDS011;64680;53.800;9.988;2023-03-01T03:45:15;19.05;;;9.88;;
75993;SDS011;64680;53.800;9.988;2023-03-01T03:47:41;17.35;;;9.77;;
75993;SDS011;64680;53.800;9.988;2023-03-01T03:50:08;22.58;;;11.45;;
75993;SDS011;64680;53.800;9.988;2023-03-01T03:52:35;18.23;;;10.20;;
75993;SDS011;64680;53.800;9.988;2023-03-01T03:55:01;21.48;;;10.75;;
75993;SDS011;64680;53.800;9.988;2023-03-01T03:57:26;21.90;;;10.90;;
75993;SDS011;64680;53.800;9.988;2023-03-01T03:59:52;21.45;;;10.50;;
75993;SDS011;64680;53.800;9.988;2023-03-01T04:02:17;19.75;;;9.93;;
75993;SDS011;64680;53.800;9.988;2023-03-01T04:04:47;21.00;;;10.27;;
75993;SDS011;64680;53.800;9.988;2023-03-01T04:07:14;23.52;;;11.32;;
75993;SDS011;64680;53.800;9.988;2023-03-01T04:09:41;20.33;;;10.57;;
75993;SDS011;64680;53.800;9.988;2023-03-01T04:12:08;19.85;;;10.20;;
75993;SDS011;64680;53.800;9.988;2023-03-01T04:14:34;17.92;;;8.52;;
75993;SDS011;64680;53.800;9.988;2023-03-01T04:17:00;17.58;;;9.05;;
75993;SDS011;64680;53.800;9.988;2023-03-01T04:19:26;18.23;;;9.88;;
75993;SDS011;64680;53.800;9.988;2023-03-01T04:21:52;19.35;;;9.63;;
75993;SDS011;64680;53.800;9.988;2023-03-01T04:24:18;21.20;;;10.60;;
75993;SDS011;64680;53.800;9.988;2023-03-01T04:26:44;22.45;;;10.73;;
75993;SDS011;64680;53.800;9.988;2023-03-01T04:29:09;23.15;;;10.88;;
75993;SDS011;64680;53.800;9.988;2023-03-01T04:31:35;19.00;;;10.27;;
75993;SDS011;64680;53.800;9.988;2023-03-01T04:34:01;20.23;;;10.55;;
75993;SDS011;64680;53.800;9.988;2023-03-01T04:36:27;23.02;;;11.48;;
75993;SDS011;64680;53.800;9.988;2023-03-01T04:38:54;21.80;;;11.07;;
75993;SDS011;64680;53.800;9.988;2023-03-01T04:41:21;24.17;;;11.80;;
75993;SDS011;64680;53.800;9.988;2023-03-01T04:43:47;27.38;;;13.05;;
75993;SDS011;64680;53.800;9.988;2023-03-01T04:46:14;24.05;;;12.88;;
75993;SDS011;64680;53.800;9.988;2023-03-01T04:48:44;24.83;;;13.73;;
75993;SDS011;64680;53.800;9.988;2023-03-01T04:51:11;26.83;;;13.82;;
75993;SDS011;64680;53.800;9.988;2023-03-01T04:53:38;29.15;;;13.65;;
75993;SDS011;64680;53.800;9.988;2023-03-01T04:56:05;28.90;;;13.65;;
75993;SDS011;64680;53.800;9.988;2023-03-01T04:58:31;24.90;;;11.75;;
75993;SDS011;64680;53.800;9.988;2023-03-01T05:00:57;26.42;;;12.80;;
75993;SDS011;64680;53.800;9.988;2023-03-01T05:03:22;26.92;;;13.98;;
75993;SDS011;64680;53.800;9.988;2023-03-01T05:05:49;26.42;;;13.52;;
75993;SDS011;64680;53.800;9.988;2023-03-01T05:08:17;26.23;;;13.02;;
75993;SDS011;64680;53.800;9.988;2023-03-01T05:10:44;25.73;;;13.18;;
75993;SDS011;64680;53.800;9.988;2023-03-01T05:13:11;26.00;;;13.77;;
75993;SDS011;64680;53.800;9.988;2023-03-01T05:15:45;28.35;;;13.35;;
75993;SDS011;64680;53.800;9.988;2023-03-01T05:18:22;24.20;;;10.70;;
75993;SDS011;64680;53.800;9.988;2023-03-01T05:20:51;28.08;;;12.68;;
75993;SDS011;64680;53.800;9.988;2023-03-01T05:23:23;28.27;;;13.60;;
75993;SDS011;64680;53.800;9.988;2023-03-01T05:25:51;24.40;;;12.75;;
75993;SDS011;64680;53.800;9.988;2023-03-01T05:28:17;26.20;;;11.55;;
75993;SDS011;64680;53.800;9.988;2023-03-01T05:30:44;24.83;;;12.50;;
75993;SDS011;64680;53.800;9.988;2023-03-01T05:33:10;25.45;;;12.98;;
75993;SDS011;64680;53.800;9.988;2023-03-01T05:35:38;27.60;;;13.10;;
75993;SDS011;64680;53.800;9.988;2023-03-01T05:38:06;27.98;;;13.32;;
75993;SDS011;64680;53.800;9.988;2023-03-01T05:40:32;28.90;;;14.43;;
75993;SDS011;64680;53.800;9.988;2023-03-01T05:42:59;27.38;;;14.65;;
75993;SDS011;64680;53.800;9.988;2023-03-01T05:45:25;27.23;;;13.85;;
75993;SDS011;64680;53.800;9.988;2023-03-01T05:47:51;25.05;;;13.65;;
75993;SDS011;64680;53.800;9.988;2023-03-01T05:50:27;28.92;;;14.00;;
75993;SDS011;64680;53.800;9.988;2023-03-01T05:52:58;25.83;;;12.68;;
75993;SDS011;64680;53.800;9.988;2023-03-01T05:55:26;25.45;;;12.80;;
75993;SDS011;64680;53.800;9.988;2023-03-01T05:57:52;24.73;;;13.75;;
75993;SDS011;64680;53.800;9.988;2023-03-01T06:00:18;25.73;;;13.02;;
75993;SDS011;64680;53.800;9.988;2023-03-01T06:02:47;25.23;;;13.27;;
75993;SDS011;64680;53.800;9.988;2023-03-01T06:05:14;26.60;;;13.77;;
75993;SDS011;64680;53.800;9.988;2023-03-01T06:07:40;26.75;;;14.18;;
75993;SDS011;64680;53.800;9.988;2023-03-01T06:10:07;20.83;;;12.07;;
75993;SDS011;64680;53.800;9.988;2023-03-01T06:12:34;26.88;;;15.20;;
75993;SDS011;64680;53.800;9.988;2023-03-01T06:15:00;34.33;;;15.73;;
75993;SDS011;64680;53.800;9.988;2023-03-01T06:17:28;27.77;;;14.27;;
75993;SDS011;64680;53.800;9.988;2023-03-01T06:19:55;25.65;;;14.40;;
75993;SDS011;64680;53.800;9.988;2023-03-01T06:22:21;29.73;;;14.52;;
75993;SDS011;64680;53.800;9.988;2023-03-01T06:24:46;26.58;;;13.27;;
75993;SDS011;64680;53.800;9.988;2023-03-01T06:27:12;30.58;;;15.30;;
75993;SDS011;64680;53.800;9.988;2023-03-01T06:29:37;36.92;;;17.45;;
75993;SDS011;64680;53.800;9.988;2023-03-01T06:32:03;43.05;;;21.33;;
75993;SDS011;64680;53.800;9.988;2023-03-01T06:34:29;33.75;;;18.52;;
75993;SDS011;64680;53.800;9.988;2023-03-01T06:36:54;56.22;;;23.20;;
75993;SDS011;64680;53.800;9.988;2023-03-01T06:39:20;53.83;;;24.90;;
75993;SDS011;64680;53.800;9.988;2023-03-01T06:41:46;63.55;;;26.48;;
75993;SDS011;64680;53.800;9.988;2023-03-01T06:44:11;72.40;;;29.02;;
75993;SDS011;64680;53.800;9.988;2023-03-01T06:46:38;44.40;;;22.10;;
75993;SDS011;64680;53.800;9.988;2023-03-01T06:49:04;42.13;;;21.60;;
75993;SDS011;64680;53.800;9.988;2023-03-01T06:51:34;44.70;;;21.05;;
75993;SDS011;64680;53.800;9.988;2023-03-01T06:54:03;37.53;;;20.15;;
75993;SDS011;64680;53.800;9.988;2023-03-01T06:56:30;35.05;;;18.42;;
75993;SDS011;64680;53.800;9.988;2023-03-01T06:58:56;35.95;;;20.08;;
75993;SDS011;64680;53.800;9.988;2023-03-01T07:01:22;39.42;;;21.40;;
75993;SDS011;64680;53.800;9.988;2023-03-01T07:03:47;34.72;;;19.50;;
75993;SDS011;64680;53.800;9.988;2023-03-01T07:06:13;42.65;;;20.42;;
75993;SDS011;64680;53.800;9.988;2023-03-01T07:08:38;31.00;;;18.38;;
75993;SDS011;64680;53.800;9.988;2023-03-01T07:11:04;34.05;;;18.48;;
75993;SDS011;64680;53.800;9.988;2023-03-01T07:13:30;31.70;;;17.55;;
75993;SDS011;64680;53.800;9.988;2023-03-01T07:15:56;34.08;;;17.25;;
75993;SDS011;64680;53.800;9.988;2023-03-01T07:18:21;39.17;;;20.35;;
75993;SDS011;64680;53.800;9.988;2023-03-01T07:20:47;37.05;;;20.15;;
75993;SDS011;64680;53.800;9.988;2023-03-01T07:23:13;35.95;;;18.27;;
75993;SDS011;64680;53.800;9.988;2023-03-01T07:25:38;28.27;;;17.27;;
75993;SDS011;64680;53.800;9.988;2023-03-01T07:28:04;34.95;;;18.35;;
75993;SDS011;64680;53.800;9.988;2023-03-01T07:30:29;26.58;;;15.35;;
75993;SDS011;64680;53.800;9.988;2023-03-01T07:32:56;46.22;;;21.08;;
75993;SDS011;64680;53.800;9.988;2023-03-01T07:35:23;29.70;;;15.32;;
75993;SDS011;64680;53.800;9.988;2023-03-01T07:37:51;26.48;;;15.15;;
75993;SDS011;64680;53.800;9.988;2023-03-01T07:40:17;22.75;;;14.40;;
75993;SDS011;64680;53.800;9.988;2023-03-01T07:42:43;21.13;;;12.25;;
75993;SDS011;64680;53.800;9.988;2023-03-01T07:45:09;26.30;;;14.90;;
75993;SDS011;64680;53.800;9.988;2023-03-01T07:47:35;23.75;;;12.38;;
75993;SDS011;64680;53.800;9.988;2023-03-01T07:50:02;26.45;;;13.60;;
75993;SDS011;64680;53.800;9.988;2023-03-01T07:52:28;26.38;;;13.25;;
75993;SDS011;64680;53.800;9.988;2023-03-01T07:54:55;34.38;;;16.70;;
75993;SDS011;64680;53.800;9.988;2023-03-01T07:57:21;22.52;;;13.40;;
75993;SDS011;64680;53.800;9.988;2023-03-01T07:59:47;27.33;;;13.73;;
75993;SDS011;64680;53.800;9.988;2023-03-01T08:02:12;39.10;;;17.45;;
75993;SDS011;64680;53.800;9.988;2023-03-01T08:04:40;23.85;;;13.00;;
75993;SDS011;64680;53.800;9.988;2023-03-01T08:07:06;22.95;;;14.02;;
75993;SDS011;64680;53.800;9.988;2023-03-01T08:09:33;27.38;;;14.32;;
75993;SDS011;64680;53.800;9.988;2023-03-01T08:12:00;33.90;;;14.90;;
75993;SDS011;64680;53.800;9.988;2023-03-01T08:14:26;40.47;;;16.23;;
75993;SDS011;64680;53.800;9.988;2023-03-01T08:16:52;28.38;;;13.60;;
75993;SDS011;64680;53.800;9.988;2023-03-01T08:19:18;18.80;;;10.30;;
75993;SDS011;64680;53.800;9.988;2023-03-01T08:21:43;17.65;;;10.25;;
75993;SDS011;64680;53.800;9.988;2023-03-01T08:24:09;15.80;;;9.48;;
75993;SDS011;64680;53.800;9.988;2023-03-01T08:26:35;17.75;;;10.32;;
75993;SDS011;64680;53.800;9.988;2023-03-01T08:29:01;27.50;;;10.57;;
75993;SDS011;64680;53.800;9.988;2023-03-01T08:31:31;20.10;;;9.93;;
75993;SDS011;64680;53.800;9.988;2023-03-01T08:34:04;18.27;;;9.45;;
75993;SDS011;64680;53.800;9.988;2023-03-01T08:38:58;20.65;;;8.20;;
75993;SDS011;64680;53.800;9.988;2023-03-01T08:41:24;29.50;;;9.30;;
75993;SDS011;64680;53.800;9.988;2023-03-01T08:43:50;17.25;;;7.90;;
75993;SDS011;64680;53.800;9.988;2023-03-01T08:46:17;16.27;;;7.18;;
75993;SDS011;64680;53.800;9.988;2023-03-01T08:48:43;12.32;;;6.53;;
75993;SDS011;64680;53.800;9.988;2023-03-01T08:51:13;18.80;;;7.82;;
75993;SDS011;64680;53.800;9.988;2023-03-01T08:53:40;29.20;;;10.23;;
75993;SDS011;64680;53.800;9.988;2023-03-01T08:56:07;17.27;;;7.40;;
75993;SDS011;64680;53.800;9.988;2023-03-01T08:58:34;16.80;;;8.50;;
75993;SDS011;64680;53.800;9.988;2023-03-01T09:01:00;25.90;;;9.48;;
75993;SDS011;64680;53.800;9.988;2023-03-01T09:03:26;29.85;;;11.18;;
75993;SDS011;64680;53.800;9.988;2023-03-01T09:05:52;14.95;;;7.53;;
75993;SDS011;64680;53.800;9.988;2023-03-01T09:08:18;17.77;;;8.35;;
75993;SDS011;64680;53.800;9.988;2023-03-01T09:10:45;17.20;;;6.82;;
75993;SDS011;64680;53.800;9.988;2023-03-01T09:13:10;16.23;;;8.05;;
75993;SDS011;64680;53.800;9.988;2023-03-01T09:15:37;36.28;;;10.10;;
75993;SDS011;64680;53.800;9.988;2023-03-01T09:18:03;15.35;;;7.50;;
75993;SDS011;64680;53.800;9.988;2023-03-01T09:20:30;21.42;;;10.45;;
75993;SDS011;64680;53.800;9.988;2023-03-01T09:22:56;36.95;;;11.20;;
75993;SDS011;64680;53.800;9.988;2023-03-01T09:25:22;16.45;;;8.30;;
75993;SDS011;64680;53.800;9.988;2023-03-01T09:27:50;17.02;;;7.90;;
75993;SDS011;64680;53.800;9.988;2023-03-01T09:30:16;16.23;;;7.30;;
75993;SDS011;64680;53.800;9.988;2023-03-01T09:32:42;11.50;;;6.03;;
75993;SDS011;64680;53.800;9.988;2023-03-01T09:35:09;17.38;;;7.68;;
75993;SDS011;64680;53.800;9.988;2023-03-01T09:37:36;16.15;;;8.85;;
75993;SDS011;64680;53.800;9.988;2023-03-01T09:40:03;14.98;;;7.63;;
75993;SDS011;64680;53.800;9.988;2023-03-01T09:42:31;12.63;;;6.38;;
75993;SDS011;64680;53.800;9.988;2023-03-01T09:45:06;14.63;;;6.88;;
75993;SDS011;64680;53.800;9.988;2023-03-01T09:50:09;25.30;;;8.30;;
75993;SDS011;64680;53.800;9.988;2023-03-01T09:55:28;12.57;;;6.57;;
75993;SDS011;64680;53.800;9.988;2023-03-01T10:00:53;9.80;;;5.20;;
75993;SDS011;64680;53.800;9.988;2023-03-01T10:03:32;19.48;;;6.53;;
75993;SDS011;64680;53.800;9.988;2023-03-01T10:06:06;26.40;;;7.13;;
75993;SDS011;64680;53.800;9.988;2023-03-01T10:11:32;8.65;;;5.03;;
75993;SDS011;64680;53.800;9.988;2023-03-01T10:16:54;14.57;;;7.05;;
75993;SDS011;64680;53.800;9.988;2023-03-01T10:19:40;12.82;;;6.90;;
75993;SDS011;64680;53.800;9.988;2023-03-01T10:24:48;14.82;;;6.93;;
75993;SDS011;64680;53.800;9.988;2023-03-01T10:27:17;15.65;;;6.63;;
75993;SDS011;64680;53.800;9.988;2023-03-01T10:32:41;11.05;;;5.95;;
75993;SDS011;64680;53.800;9.988;2023-03-01T10:35:18;8.60;;;4.35;;
75993;SDS011;64680;53.800;9.988;2023-03-01T10:38:03;10.10;;;5.07;;
75993;SDS011;64680;53.800;9.988;2023-03-01T10:40:31;11.88;;;6.00;;
75993;SDS011;64680;53.800;9.988;2023-03-01T10:42:57;9.60;;;5.07;;
75993;SDS011;64680;53.800;9.988;2023-03-01T10:53:33;6.72;;;4.03;;
75993;SDS011;64680;53.800;9.988;2023-03-01T10:56:13;8.80;;;4.93;;
75993;SDS011;64680;53.800;9.988;2023-03-01T10:59:17;9.57;;;5.40;;
75993;SDS011;64680;53.800;9.988;2023-03-01T11:01:30;8.80;;;3.97;;
75993;SDS011;64680;53.800;9.988;2023-03-01T11:04:18;6.57;;;3.90;;
75993;SDS011;64680;53.800;9.988;2023-03-01T11:06:43;8.57;;;4.53;;
75993;SDS011;64680;53.800;9.988;2023-03-01T11:09:23;8.05;;;5.15;;
75993;SDS011;64680;53.800;9.988;2023-03-01T11:11:53;8.43;;;4.85;;
75993;SDS011;64680;53.800;9.988;2023-03-01T11:14:36;7.40;;;4.22;;
75993;SDS011;64680;53.800;9.988;2023-03-01T11:17:12;9.82;;;6.00;;
75993;SDS011;64680;53.800;9.988;2023-03-01T11:22:28;8.20;;;4.95;;
75993;SDS011;64680;53.800;9.988;2023-03-01T11:24:57;7.55;;;4.60;;
75993;SDS011;64680;53.800;9.988;2023-03-01T11:27:25;8.50;;;4.93;;
75993;SDS011;64680;53.800;9.988;2023-03-01T11:30:01;9.13;;;4.78;;
75993;SDS011;64680;53.800;9.988;2023-03-01T11:32:34;7.97;;;4.75;;
75993;SDS011;64680;53.800;9.988;2023-03-01T11:35:09;12.50;;;6.45;;
75993;SDS011;64680;53.800;9.988;2023-03-01T11:37:38;12.57;;;7.35;;
75993;SDS011;64680;53.800;9.988;2023-03-01T11:40:24;10.90;;;6.78;;
75993;SDS011;64680;53.800;9.988;2023-03-01T11:43:04;11.75;;;6.78;;
75993;SDS011;64680;53.800;9.988;2023-03-01T11:48:36;7.72;;;4.82;;
75993;SDS011;64680;53.800;9.988;2023-03-01T11:51:24;7.53;;;5.38;;
75993;SDS011;64680;53.800;9.988;2023-03-01T12:10:57;8.60;;;5.22;;
75993;SDS011;64680;53.800;9.988;2023-03-01T12:33:12;7.55;;;4.63;;
75993;SDS011;64680;53.800;9.988;2023-03-01T12:49:31;7.93;;;4.82;;
75993;SDS011;64680;53.800;9.988;2023-03-01T12:52:09;7.75;;;5.45;;
75993;SDS011;64680;53.800;9.988;2023-03-01T12:54:39;7.97;;;4.90;;
75993;SDS011;64680;53.800;9.988;2023-03-01T13:00:05;8.23;;;5.93;;
75993;SDS011;64680;53.800;9.988;2023-03-01T13:02:40;10.80;;;7.75;;
75993;SDS011;64680;53.800;9.988;2023-03-01T13:07:58;9.93;;;6.72;;
75993;SDS011;64680;53.800;9.988;2023-03-01T13:10:39;9.20;;;6.43;;
75993;SDS011;64680;53.800;9.988;2023-03-01T13:19:05;13.10;;;7.35;;
75993;SDS011;64680;53.800;9.988;2023-03-01T13:21:42;9.45;;;6.30;;
75993;SDS011;64680;53.800;9.988;2023-03-01T13:32:23;8.80;;;5.13;;
75993;SDS011;64680;53.800;9.988;2023-03-01T13:34:51;12.23;;;5.88;;
75993;SDS011;64680;53.800;9.988;2023-03-01T13:37:19;7.75;;;5.07;;
75993;SDS011;64680;53.800;9.988;2023-03-01T13:40:00;9.50;;;6.40;;
75993;SDS011;64680;53.800;9.988;2023-03-01T13:42:50;11.73;;;5.53;;
75993;SDS011;64680;53.800;9.988;2023-03-01T13:48:20;9.15;;;5.57;;
75993;SDS011;64680;53.800;9.988;2023-03-01T13:50:51;10.38;;;6.60;;
75993;SDS011;64680;53.800;9.988;2023-03-01T13:53:24;10.65;;;6.20;;
75993;SDS011;64680;53.800;9.988;2023-03-01T13:55:59;10.23;;;5.95;;
75993;SDS011;64680;53.800;9.988;2023-03-01T13:58:54;9.65;;;6.65;;
75993;SDS011;64680;53.800;9.988;2023-03-01T14:03:54;9.38;;;5.90;;
75993;SDS011;64680;53.800;9.988;2023-03-01T14:06:21;10.45;;;6.15;;
75993;SDS011;64680;53.800;9.988;2023-03-01T14:08:52;11.40;;;6.68;;
75993;SDS011;64680;53.800;9.988;2023-03-01T14:11:33;9.82;;;5.00;;
75993;SDS011;64680;53.800;9.988;2023-03-01T14:24:48;8.68;;;5.97;;
75993;SDS011;64680;53.800;9.988;2023-03-01T14:27:28;8.48;;;5.72;;
75993;SDS011;64680;53.800;9.988;2023-03-01T14:30:26;9.02;;;5.05;;
75993;SDS011;64680;53.800;9.988;2023-03-01T14:32:55;8.93;;;4.57;;
75993;SDS011;64680;53.800;9.988;2023-03-01T14:35:27;8.40;;;5.40;;
75993;SDS011;64680;53.800;9.988;2023-03-01T14:37:54;8.95;;;4.97;;
75993;SDS011;64680;53.800;9.988;2023-03-01T14:40:24;7.63;;;4.82;;
75993;SDS011;64680;53.800;9.988;2023-03-01T14:42:50;8.23;;;5.38;;
75993;SDS011;64680;53.800;9.988;2023-03-01T14:45:18;9.10;;;5.35;;
75993;SDS011;64680;53.800;9.988;2023-03-01T14:47:44;8.02;;;5.05;;
75993;SDS011;64680;53.800;9.988;2023-03-01T14:50:29;8.05;;;5.25;;
75993;SDS011;64680;53.800;9.988;2023-03-01T14:52:58;9.02;;;5.10;;
75993;SDS011;64680;53.800;9.988;2023-03-01T14:55:29;6.70;;;4.20;;
75993;SDS011;64680;53.800;9.988;2023-03-01T14:57:58;8.50;;;5.30;;
75993;SDS011;64680;53.800;9.988;2023-03-01T15:00:25;7.88;;;5.05;;
75993;SDS011;64680;53.800;9.988;2023-03-01T15:02:54;7.80;;;4.85;;
75993;SDS011;64680;53.800;9.988;2023-03-01T15:05:29;10.18;;;5.43;;
75993;SDS011;64680;53.800;9.988;2023-03-01T15:08:00;9.13;;;5.60;;
75993;SDS011;64680;53.800;9.988;2023-03-01T15:10:29;8.45;;;5.80;;
75993;SDS011;64680;53.800;9.988;2023-03-01T15:13:09;9.75;;;5.70;;
75993;SDS011;64680;53.800;9.988;2023-03-01T15:15:38;8.70;;;5.38;;
75993;SDS011;64680;53.800;9.988;2023-03-01T15:18:18;9.13;;;5.38;;
75993;SDS011;64680;53.800;9.988;2023-03-01T15:20:54;11.30;;;5.65;;
75993;SDS011;64680;53.800;9.988;2023-03-01T15:23:22;8.85;;;5.03;;
75993;SDS011;64680;53.800;9.988;2023-03-01T15:25:48;8.95;;;5.38;;
75993;SDS011;64680;53.800;9.988;2023-03-01T15:28:22;11.10;;;6.30;;
75993;SDS011;64680;53.800;9.988;2023-03-01T15:30:55;9.85;;;5.43;;
75993;SDS011;64680;53.800;9.988;2023-03-01T15:33:34;11.55;;;7.75;;
75993;SDS011;64680;53.800;9.988;2023-03-01T15:36:03;17.98;;;12.27;;
75993;SDS011;64680;53.800;9.988;2023-03-01T15:38:52;18.42;;;10.77;;
75993;SDS011;64680;53.800;9.988;2023-03-01T15:43:58;9.93;;;6.47;;
75993;SDS011;64680;53.800;9.988;2023-03-01T15:48:58;14.15;;;7.95;;
75993;SDS011;64680;53.800;9.988;2023-03-01T15:51:32;14.57;;;7.78;;
75993;SDS011;64680;53.800;9.988;2023-03-01T15:54:13;21.42;;;11.77;;
75993;SDS011;64680;53.800;9.988;2023-03-01T15:56:43;14.20;;;7.32;;
75993;SDS011;64680;53.800;9.988;2023-03-01T15:59:09;14.88;;;8.60;;
75993;SDS011;64680;53.800;9.988;2023-03-01T16:01:40;25.02;;;13.07;;
75993;SDS011;64680;53.800;9.988;2023-03-01T16:04:06;15.40;;;9.13;;
75993;SDS011;64680;53.800;9.988;2023-03-01T16:06:33;17.23;;;10.27;;
75993;SDS011;64680;53.800;9.988;2023-03-01T16:08:58;22.05;;;15.98;;
75993;SDS011;64680;53.800;9.988;2023-03-01T16:11:24;9.13;;;5.60;;
75993;SDS011;64680;53.800;9.988;2023-03-01T16:13:50;13.02;;;9.27;;
75993;SDS011;64680;53.800;9.988;2023-03-01T16:16:15;15.18;;;10.80;;
75993;SDS011;64680;53.800;9.988;2023-03-01T16:18:42;12.23;;;8.38;;
75993;SDS011;64680;53.800;9.988;2023-03-01T16:21:16;16.27;;;11.70;;
75993;SDS011;64680;53.800;9.988;2023-03-01T16:23:48;12.90;;;8.63;;
75993;SDS011;64680;53.800;9.988;2023-03-01T16:26:14;16.98;;;11.30;;
75993;SDS011;64680;53.800;9.988;2023-03-01T16:28:41;15.30;;;10.77;;
75993;SDS011;64680;53.800;9.988;2023-03-01T16:31:08;13.55;;;8.32;;
75993;SDS011;64680;53.800;9.988;2023-03-01T16:33:35;13.43;;;9.23;;
75993;SDS011;64680;53.800;9.988;2023-03-01T16:36:06;17.50;;;11.75;;
75993;SDS011;64680;53.800;9.988;2023-03-01T16:38:33;15.73;;;11.20;;
75993;SDS011;64680;53.800;9.988;2023-03-01T16:40:59;12.48;;;9.00;;
75993;SDS011;64680;53.800;9.988;2023-03-01T16:43:25;16.67;;;11.32;;
75993;SDS011;64680;53.800;9.988;2023-03-01T16:45:51;15.65;;;11.52;;
75993;SDS011;64680;53.800;9.988;2023-03-01T16:48:16;13.70;;;9.23;;
75993;SDS011;64680;53.800;9.988;2023-03-01T16:50:42;17.67;;;11.85;;
75993;SDS011;64680;53.800;9.988;2023-03-01T16:53:08;19.13;;;11.80;;
75993;SDS011;64680;53.800;9.988;2023-03-01T16:55:34;12.55;;;8.52;;
75993;SDS011;64680;53.800;9.988;2023-03-01T16:58:00;20.67;;;14.10;;